createdAt,value
2023-01-13T00:24:06.771Z,96319.28
2023-01-13T00:35:37.854Z,96317.54
2023-01-13T00:47:09.969Z,96318.87
2023-01-13T02:26:36.047Z,96267.75
2023-01-13T05:18:51.502Z,96313.47
2023-01-13T05:21:38.090Z,96314.73
2023-01-13T05:24:25.366Z,96318.50
2023-01-13T05:26:53.212Z,96321.31
2023-01-13T05:29:21.164Z,96324.42
2023-01-13T05:31:49.116Z,96326.19
2023-01-13T05:34:16.985Z,96327.23
2023-01-13T05:36:44.981Z,96325.35
2023-01-13T05:39:12.983Z,96321.32
2023-01-13T05:41:59.475Z,96321.67
2023-01-13T05:44:27.425Z,96324.77
2023-01-13T05:46:55.391Z,96327.16
2023-01-13T05:49:23.561Z,96327.72
2023-01-13T05:51:51.586Z,96326.80
2023-01-13T05:54:19.695Z,96332.46
2023-01-13T05:56:47.606Z,96335.73
2023-01-13T05:59:15.532Z,96339.56
2023-01-13T06:01:43.555Z,96341.27
2023-01-13T06:04:11.584Z,96345.07
2023-01-13T06:06:40.407Z,96345.59
2023-01-13T06:09:08.526Z,96346.17
2023-01-13T06:11:36.426Z,96345.14
2023-01-13T06:14:04.766Z,96340.88
2023-01-13T06:16:32.744Z,96341.26
2023-01-13T06:19:00.737Z,96341.85
2023-01-13T06:21:28.854Z,96342.44
2023-01-13T06:23:59.222Z,96346.17
2023-01-13T06:26:30.680Z,96349.54
2023-01-13T06:28:58.866Z,96355.54
2023-01-13T06:31:28.735Z,96355.13
2023-01-13T06:34:04.715Z,96357.27
2023-01-13T06:36:38.071Z,96359.44
2023-01-13T06:39:06.840Z,96357.92
2023-01-13T06:41:53.357Z,96358.61
2023-01-13T06:44:24.371Z,96360.46
2023-01-13T06:46:52.844Z,96355.42
2023-01-13T06:49:21.814Z,96354.77
2023-01-13T06:51:51.398Z,96354.11
2023-01-13T06:54:19.291Z,96353.88
2023-01-13T06:56:47.258Z,96351.84
2023-01-13T06:59:15.281Z,96356.92
2023-01-13T07:01:43.766Z,96359.70
2023-01-13T07:04:11.879Z,96359.89
2023-01-13T07:06:39.799Z,96356.20
2023-01-13T07:09:07.732Z,96356.80
2023-01-13T07:11:35.606Z,96353.55
2023-01-13T07:14:22.115Z,96353.02
2023-01-13T07:16:52.415Z,96355.02
2023-01-13T07:19:23.890Z,96355.90
2023-01-13T07:21:52.732Z,96355.83
2023-01-13T07:24:22.466Z,96352.82
2023-01-13T07:26:52.235Z,96350.08
2023-01-13T07:29:20.474Z,96346.98
2023-01-13T07:31:50.210Z,96351.27
2023-01-13T07:34:18.727Z,96349.50
2023-01-13T07:36:46.772Z,96350.05
2023-01-13T07:39:14.833Z,96348.91
2023-01-13T07:42:01.516Z,96348.61
2023-01-13T07:44:29.656Z,96345.33
2023-01-13T07:46:57.549Z,96347.16
2023-01-13T07:49:25.500Z,96347.55
2023-01-13T07:51:56.597Z,96349.23
2023-01-13T07:54:35.220Z,96348.52
2023-01-13T07:57:08.184Z,96343.55
2023-01-13T07:59:36.343Z,96344.29
2023-01-13T08:02:04.498Z,96344.13
2023-01-13T08:04:33.840Z,96346.64
2023-01-13T08:07:01.871Z,96346.23
2023-01-13T08:09:30.139Z,96352.31
2023-01-13T08:12:16.835Z,96351.70
2023-01-13T08:14:44.893Z,96346.56
2023-01-13T08:17:12.835Z,96344.69
2023-01-13T08:19:40.939Z,96344.73
2023-01-13T08:22:09.028Z,96343.02
2023-01-13T08:24:37.081Z,96342.55
2023-01-13T08:27:05.155Z,96342.39
2023-01-13T08:29:33.141Z,96348.81
2023-01-13T08:32:01.244Z,96345.14
2023-01-13T08:34:29.324Z,96350.99
2023-01-13T08:36:57.337Z,96351.02
2023-01-13T08:39:25.599Z,96349.27
2023-01-13T08:41:56.429Z,96347.61
2023-01-13T08:44:30.217Z,96347.05
2023-01-13T08:46:58.671Z,96348.70
2023-01-13T08:49:27.122Z,96351.03
2023-01-13T08:51:55.110Z,96349.99
2023-01-13T08:54:23.258Z,96351.73
2023-01-13T08:56:51.436Z,96355.38
2023-01-13T08:59:20.062Z,96359.11
2023-01-13T09:01:48.513Z,96356.47
2023-01-13T09:04:19.959Z,96353.34
2023-01-13T09:06:47.925Z,96349.74
2023-01-13T09:09:16.371Z,96349.75
2023-01-13T09:12:07.018Z,96353.27
2023-01-13T09:14:37.077Z,96354.81
2023-01-13T09:17:29.530Z,96356.15
2023-01-13T09:20:21.545Z,96355.30
2023-01-13T09:23:13.110Z,96353.00
2023-01-13T09:26:05.586Z,96346.12
2023-01-13T09:28:57.611Z,96343.69
2023-01-13T09:31:49.788Z,96340.70
2023-01-13T09:35:00.167Z,96344.34
2023-01-13T09:37:53.574Z,96345.27
2023-01-13T09:40:48.929Z,96344.80
2023-01-13T09:43:53.729Z,96339.38
2023-01-13T09:46:54.329Z,96331.09
2023-01-13T09:49:46.406Z,96329.04
2023-01-13T09:52:41.523Z,96328.61
2023-01-13T09:55:38.383Z,96321.30
2023-01-13T09:58:30.633Z,96317.61
2023-01-13T10:01:54.752Z,96314.63
2023-01-13T10:05:04.005Z,96306.79
2023-01-13T10:08:02.772Z,96307.91
2023-01-13T10:11:22.335Z,96309.41
2023-01-13T10:14:29.298Z,96307.66
2023-01-13T10:17:53.321Z,96306.31
2023-01-13T10:21:08.242Z,96302.57
2023-01-13T10:24:07.259Z,96296.52
2023-01-13T10:27:03.933Z,96293.55
2023-01-13T10:29:55.642Z,96292.27
2023-01-13T10:32:55.375Z,96292.09
2023-01-13T10:36:03.341Z,96292.40
2023-01-13T10:39:08.336Z,96290.16
2023-01-13T10:42:05.160Z,96281.67
2023-01-13T10:44:59.967Z,96281.59
2023-01-13T10:48:12.895Z,96280.38
2023-01-13T10:51:14.429Z,96278.55
2023-01-13T10:54:12.984Z,96279.27
2023-01-13T10:57:36.060Z,96275.84
2023-01-13T11:00:33.816Z,96271.25
2023-01-13T11:03:28.053Z,96270.33
2023-01-13T11:06:33.097Z,96261.88
2023-01-13T11:09:27.638Z,96262.45
2023-01-13T11:12:34.859Z,96264.54
2023-01-13T11:15:38.271Z,96262.97
2023-01-13T11:19:11.853Z,96258.48
2023-01-13T11:22:20.545Z,96257.17
2023-01-13T11:25:33.402Z,96256.85
2023-01-13T11:28:35.783Z,96254.29
2023-01-13T11:31:33.954Z,96245.48
2023-01-13T11:34:36.944Z,96241.56
2023-01-13T11:37:32.798Z,96238.70
2023-01-13T11:40:27.267Z,96237.43
2023-01-13T11:43:43.643Z,96233.01
2023-01-13T11:46:35.964Z,96228.40
2023-01-13T11:49:33.237Z,96227.55
2023-01-13T11:52:37.672Z,96224.30
2023-01-13T11:55:55.543Z,96223.05
2023-01-13T11:59:04.893Z,96220.65
2023-01-13T12:02:18.069Z,96223.10
2023-01-13T12:05:32.287Z,96219.36
2023-01-13T12:08:47.776Z,96215.55
2023-01-13T12:12:35.796Z,96218.58
2023-01-13T12:16:09.195Z,96209.46
2023-01-13T12:19:13.775Z,96210.56
2023-01-13T12:22:27.452Z,96209.70
2023-01-13T12:25:32.392Z,96204.51
2023-01-13T12:28:43.398Z,96203.63
2023-01-13T12:31:40.271Z,96205.46
2023-01-13T12:34:44.643Z,96206.48
2023-01-13T12:38:04.028Z,96205.92
2023-01-13T12:41:16.591Z,96206.78
2023-01-13T12:44:18.056Z,96209.11
2023-01-13T12:47:37.453Z,96216.41
2023-01-13T12:50:29.551Z,96215.65
2023-01-13T12:53:32.802Z,96210.52
2023-01-13T12:56:44.911Z,96212.94
2023-01-13T12:59:36.826Z,96212.29
2023-01-13T13:02:29.928Z,96213.98
2023-01-13T13:05:24.441Z,96213.27
2023-01-13T13:08:30.669Z,96213.39
2023-01-13T13:11:54.861Z,96215.56
2023-01-13T13:14:46.599Z,96209.55
2023-01-13T13:17:39.640Z,96208.52
2023-01-13T13:20:56.741Z,96205.22
2023-01-13T13:24:11.072Z,96204.27
2023-01-13T13:27:17.407Z,96200.94
2023-01-13T13:30:36.736Z,96204.15
2023-01-13T13:33:48.056Z,96204.27
2023-01-13T13:37:27.506Z,96207.73
2023-01-13T13:41:02.760Z,96210.74
2023-01-13T13:44:21.731Z,96217.38
2023-01-13T13:47:13.567Z,96217.53
2023-01-13T13:50:12.717Z,96215.93
2023-01-13T13:53:08.540Z,96215.93
2023-01-13T13:56:03.032Z,96219.43
2023-01-13T13:58:55.802Z,96218.65
2023-01-13T14:02:00.790Z,96220.27
2023-01-13T14:05:28.853Z,96223.46
2023-01-13T14:08:21.722Z,96226.40
2023-01-13T14:11:27.972Z,96224.83
2023-01-13T14:14:21.120Z,96226.52
2023-01-13T14:17:25.407Z,96226.55
2023-01-13T14:20:19.536Z,96224.30
2023-01-13T14:23:18.239Z,96224.46
2023-01-13T14:26:14.998Z,96227.44
2023-01-13T14:29:06.586Z,96228.70
2023-01-13T14:31:58.739Z,96232.29
2023-01-13T14:34:52.685Z,96238.05
2023-01-13T14:37:46.153Z,96247.56
2023-01-13T14:40:42.475Z,96251.02
2023-01-13T14:43:34.385Z,96248.55
2023-01-13T14:46:40.576Z,96246.26
2023-01-13T14:49:49.906Z,96238.91
2023-01-13T14:52:50.762Z,96244.19
2023-01-13T14:55:42.330Z,96251.33
2023-01-13T14:58:34.764Z,96247.97
2023-01-13T15:01:30.389Z,96244.18
2023-01-13T15:04:26.610Z,96244.55
2023-01-13T15:07:25.882Z,96247.91
2023-01-13T15:10:30.290Z,96247.26
2023-01-13T15:13:48.893Z,96243.97
2023-01-13T15:16:45.525Z,96249.06
2023-01-13T15:19:37.400Z,96247.33
2023-01-13T15:22:29.803Z,96245.23
2023-01-13T15:25:22.071Z,96244.96
2023-01-13T15:28:22.717Z,96242.50
2023-01-13T15:31:15.211Z,96242.27
2023-01-13T15:34:07.844Z,96242.23
2023-01-13T15:36:59.449Z,96242.36
2023-01-13T15:39:51.499Z,96243.66
2023-01-13T15:43:02.140Z,96244.29
2023-01-13T15:46:13.173Z,96248.42
2023-01-13T15:49:21.865Z,96249.02
2023-01-13T15:52:19.018Z,96252.77
2023-01-13T15:55:11.238Z,96250.22
2023-01-13T15:58:03.888Z,96246.02
2023-01-13T16:00:55.908Z,96243.98
2023-01-13T16:03:49.107Z,96245.05
2023-01-13T16:06:42.690Z,96239.02
2023-01-13T16:09:34.450Z,96237.20
2023-01-13T16:12:26.928Z,96236.62
2023-01-13T16:15:22.436Z,96236.05
2023-01-13T16:18:18.297Z,96239.64
2023-01-13T16:21:13.136Z,96238.27
2023-01-13T16:24:06.270Z,96237.08
2023-01-13T16:26:58.486Z,96235.38
2023-01-13T16:29:52.319Z,96236.95
2023-01-13T16:32:44.608Z,96240.27
2023-01-13T16:35:37.018Z,96239.67
2023-01-13T16:38:52.868Z,96235.69
2023-01-13T16:41:45.097Z,96232.70
2023-01-13T16:44:36.878Z,96229.63
2023-01-13T16:47:28.865Z,96233.13
2023-01-13T16:50:22.679Z,96227.96
2023-01-13T16:53:16.065Z,96228.64
2023-01-13T16:56:22.675Z,96229.50
2023-01-13T16:59:15.229Z,96231.19
2023-01-13T17:02:14.816Z,96232.88
2023-01-13T17:05:07.400Z,96238.67
2023-01-13T17:07:59.868Z,96235.67
2023-01-13T17:10:52.617Z,96229.98
2023-01-13T17:13:44.763Z,96229.69
2023-01-13T17:16:37.191Z,96228.58
2023-01-13T17:19:29.991Z,96228.50
2023-01-13T17:22:22.496Z,96237.48
2023-01-13T17:25:14.751Z,96237.33
2023-01-13T17:28:06.731Z,96236.81
2023-01-13T17:30:58.824Z,96237.27
2023-01-13T17:33:50.809Z,96234.65
2023-01-13T17:36:45.528Z,96236.58
2023-01-13T17:39:37.775Z,96238.56
2023-01-13T17:42:30.105Z,96233.73
2023-01-13T17:45:22.285Z,96234.21
2023-01-13T17:48:15.423Z,96235.98
2023-01-13T17:51:11.461Z,96237.59
2023-01-13T17:54:03.747Z,96235.70
2023-01-13T17:56:56.772Z,96232.29
2023-01-13T17:59:48.985Z,96225.71
2023-01-13T18:02:41.011Z,96226.98
2023-01-13T18:05:34.116Z,96233.52
2023-01-13T18:08:26.102Z,96226.86
2023-01-13T18:11:19.879Z,96218.61
2023-01-13T18:14:13.003Z,96218.08
2023-01-13T18:17:04.751Z,96215.95
2023-01-13T18:20:15.453Z,96217.01
2023-01-13T18:23:41.412Z,96222.77
2023-01-13T18:26:52.156Z,96225.04
2023-01-13T18:29:43.959Z,96223.52
2023-01-13T18:32:36.087Z,96225.56
2023-01-13T18:35:27.674Z,96224.23
2023-01-13T18:38:23.515Z,96225.85
2023-01-13T18:41:40.109Z,96226.55
2023-01-13T18:44:31.829Z,96228.81
2023-01-13T18:47:26.391Z,96221.13
2023-01-13T18:50:19.076Z,96215.70
2023-01-13T18:53:11.698Z,96214.86
2023-01-13T18:56:08.429Z,96210.75
2023-01-13T18:59:02.462Z,96209.40
2023-01-13T19:01:55.123Z,96212.70
2023-01-13T19:04:47.101Z,96213.41
2023-01-13T19:07:39.691Z,96218.22
2023-01-13T19:10:35.359Z,96219.11
2023-01-13T19:13:27.768Z,96213.21
2023-01-13T19:16:23.895Z,96212.03
2023-01-13T19:19:16.946Z,96212.71
2023-01-13T19:22:09.008Z,96215.24
2023-01-13T19:25:03.327Z,96214.29
2023-01-13T19:27:54.934Z,96218.77
2023-01-13T19:30:47.422Z,96221.98
2023-01-13T19:33:40.255Z,96220.95
2023-01-13T19:36:31.860Z,96220.49
2023-01-13T19:39:24.630Z,96223.29
2023-01-13T19:42:35.329Z,96224.90
2023-01-13T19:45:27.061Z,96226.30
2023-01-13T19:48:22.158Z,96226.30
2023-01-13T19:51:14.723Z,96225.52
2023-01-13T19:54:07.091Z,96225.41
2023-01-13T19:56:59.026Z,96226.70
2023-01-13T19:59:50.865Z,96228.18
2023-01-13T20:02:49.133Z,96225.73
2023-01-13T20:05:41.118Z,96225.45
2023-01-13T20:08:32.924Z,96223.50
2023-01-13T20:11:31.162Z,96227.20
2023-01-13T20:14:24.014Z,96229.09
2023-01-13T20:17:18.367Z,96236.02
2023-01-13T20:20:10.968Z,96235.78
2023-01-13T20:23:03.080Z,96233.73
2023-01-13T20:25:54.781Z,96235.29
2023-01-13T20:28:47.463Z,96233.55
2023-01-13T20:31:39.751Z,96228.36
2023-01-13T20:34:32.012Z,96225.30
2023-01-13T20:37:24.220Z,96228.52
2023-01-13T20:40:16.408Z,96224.88
2023-01-13T20:43:08.710Z,96227.86
2023-01-13T20:46:03.921Z,96227.97
2023-01-13T20:48:55.973Z,96230.57
2023-01-13T20:51:48.180Z,96233.58
2023-01-13T20:54:41.309Z,96232.63
2023-01-13T20:57:33.121Z,96231.40
2023-01-13T21:00:25.285Z,96232.38
2023-01-13T21:03:17.780Z,96233.40
2023-01-13T21:06:09.916Z,96231.41
2023-01-13T21:09:02.262Z,96233.59
2023-01-13T21:12:13.346Z,96239.73
2023-01-13T21:15:17.601Z,96243.52
2023-01-13T21:18:28.448Z,96249.61
2023-01-13T21:21:21.173Z,96243.45
2023-01-13T21:24:14.204Z,96243.05
2023-01-13T21:27:09.341Z,96241.06
2023-01-13T21:30:00.994Z,96237.71
2023-01-13T21:32:53.292Z,96235.27
2023-01-13T21:35:44.856Z,96238.29
2023-01-13T21:38:36.872Z,96242.46
2023-01-13T21:41:47.396Z,96243.75
2023-01-13T21:44:57.875Z,96241.39
2023-01-13T21:47:50.431Z,96241.02
2023-01-13T21:50:43.312Z,96246.42
2023-01-13T21:53:34.815Z,96247.38
2023-01-13T21:56:27.485Z,96246.62
2023-01-13T21:59:19.866Z,96247.61
2023-01-13T22:02:28.813Z,96247.36
2023-01-13T22:05:23.993Z,96248.50
2023-01-13T22:08:15.839Z,96246.23
2023-01-13T22:11:07.977Z,96247.05
2023-01-13T22:14:07.434Z,96248.82
2023-01-13T22:17:01.274Z,96251.22
2023-01-13T22:19:57.406Z,96250.84
2023-01-13T22:22:49.405Z,96254.50
2023-01-13T22:25:40.745Z,96257.50
2023-01-13T22:28:40.274Z,96259.61
2023-01-13T22:31:33.000Z,96264.02
2023-01-13T22:34:25.386Z,96263.08
2023-01-13T22:37:17.145Z,96260.64
2023-01-13T22:40:11.699Z,96261.23
2023-01-13T22:43:04.160Z,96266.86
2023-01-13T22:45:58.011Z,96270.33
2023-01-13T22:48:53.792Z,96273.27
2023-01-13T22:51:46.694Z,96276.13
2023-01-13T22:54:39.007Z,96272.47
2023-01-13T22:57:38.852Z,96275.30
2023-01-13T23:00:39.108Z,96275.13
2023-01-13T23:03:31.120Z,96274.02
2023-01-13T23:06:25.740Z,96274.06
2023-01-13T23:09:18.034Z,96278.05
2023-01-13T23:12:10.129Z,96283.60
2023-01-13T23:15:02.124Z,96284.94
2023-01-13T23:17:54.240Z,96282.88
2023-01-13T23:20:46.298Z,96281.95
2023-01-13T23:23:38.339Z,96278.08
2023-01-13T23:26:31.587Z,96278.34
2023-01-13T23:29:24.030Z,96276.11
2023-01-13T23:32:16.378Z,96277.52
2023-01-13T23:35:09.112Z,96277.34
2023-01-13T23:38:04.583Z,96278.39
2023-01-13T23:40:57.870Z,96277.83
2023-01-13T23:44:03.439Z,96266.58
2023-01-13T23:47:00.523Z,96263.50
2023-01-13T23:50:11.775Z,96265.06
2023-01-13T23:53:06.607Z,96264.84
2023-01-13T23:56:23.685Z,96266.73
2023-01-13T23:59:20.888Z,96262.98
